MiSS Linda Lee — WDE5415 — position and weather

sailwx.info

Track history (hours):
 
Tides and Currents Weather Stations Pressure Air Temp Water Temp Dewpoint Dewpoint Depression Visibility Wind Speed Wind Dir Waves Ship Positions

MiSS Linda Lee

Owner: Starfleet Marine Transportation, Inc., Mount Pleasant, SC. More information available from US FCC via Universal Licensing System and Coast Guard Vessel Documentation Center.

Last reported at 2017-Oct-16 00:15 UTC. Time now 2017-Oct-17 04:05 UTC.
Position N 29°47' W 093°21'.

Length 45 m; draft 1.5 m.

Type: Passenger vessel. MMSI: 367366390.

Date/timePositionNaut miles runAvg speedWind from/ knotsBaromVisibWave heightAir tempDewpointWater temp
2017-Oct-16 00:15N 29°47' W 093°21'  
2017-Oct-13 18:15N 29°48' W 093°21'1 0.2
2017-Oct-13 12:48N 29°49' W 093°20'0 0.0
2017-Oct-13 12:28N 29°49' W 093°20'0 0.0
2017-Oct-13 08:26N 29°49' W 093°20'2 1.4
2017-Oct-13 07:16N 29°48' W 093°20'0 0.0
2017-Oct-13 07:00N 29°48' W 093°20'0 0.0
2017-Oct-13 06:29N 29°48' W 093°20'1 0.2
2017-Oct-13 01:38N 29°49' W 093°21'1 7.2
2017-Oct-13 01:30N 29°49' W 093°20'1 0.7
2017-Oct-13 00:10N 29°49' W 093°21'7 0.4
2017-Oct-12 06:22N 29°42' W 093°20'610.4
2017-Oct-12 05:46N 29°48' W 093°21'1 0.0
2017-Oct-10 22:42N 29°49' W 093°21'1 0.1
2017-Oct-10 15:28N 29°49' W 093°20'0 0.0
2017-Oct-09 03:55N 29°49' W 093°20'1 0.9
2017-Oct-09 02:53N 29°48' W 093°21'0 0.0
2017-Oct-09 02:30N 29°48' W 093°21'0 0.0
2017-Oct-09 02:00N 29°48' W 093°21'0 0.0
2017-Oct-09 01:30N 29°48' W 093°21'0 0.0
2017-Oct-09 01:00N 29°48' W 093°21'0 0.0
2017-Oct-09 00:30N 29°48' W 093°21'0 0.0
2017-Oct-08 23:47N 29°48' W 093°21'0 0.0
2017-Oct-08 23:30N 29°48' W 093°21'0 0.0
2017-Oct-08 22:41N 29°48' W 093°21'0 0.0
2017-Oct-08 22:22N 29°48' W 093°21'0 0.0
2017-Oct-08 09:08N 29°48' W 093°21'1 0.2
2017-Oct-08 02:37N 29°48' W 093°20'0 0.0
2017-Oct-08 02:28N 29°48' W 093°20'0 0.0
2017-Oct-06 23:58N 29°48' W 093°20'5 0.3
2017-Oct-06 08:16N 29°43' W 093°19'313.1
2017-Oct-06 08:00N 29°46' W 093°21'3 6.5
2017-Oct-06 07:28N 29°49' W 093°20'1 0.6
2017-Oct-06 05:58N 29°49' W 093°21'1 2.9
2017-Oct-06 05:30N 29°48' W 093°20'0 0.0
2017-Oct-06 04:12N 29°48' W 093°20'0 0.0
2017-Oct-06 03:36N 29°48' W 093°20'0 0.0
2017-Oct-06 03:30N 29°48' W 093°20'0 0.0
2017-Oct-06 03:00N 29°48' W 093°20'0 0.0
2017-Oct-06 02:18N 29°48' W 093°20'0 0.0
2017-Oct-06 01:42N 29°48' W 093°20'0 0.0
2017-Oct-06 01:30N 29°48' W 093°20'0 0.0
2017-Oct-06 01:00N 29°48' W 093°20'0 0.0
2017-Oct-06 00:28N 29°48' W 093°20'  
Track history (hours):
 
Tides and Currents Weather Stations Pressure Air Temp Water Temp Dewpoint Dewpoint Depression Visibility Wind Speed Wind Dir Waves Ship Positions

MiSS Linda Lee

Owner: Starfleet Marine Transportation, Inc., Mount Pleasant, SC. More information available from US FCC via Universal Licensing System and Coast Guard Vessel Documentation Center.

Last reported at 2017-Oct-16 00:15 UTC. Time now 2017-Oct-17 04:05 UTC.
Position N 29°47' W 093°21'.

Length 45 m; draft 1.5 m.

Type: Passenger vessel. MMSI: 367366390.

Date/timePositionNaut miles runAvg speedWind from/ knotsBaromVisibWave heightAir tempDewpointWater temp
2017-Oct-16 00:15N 29°47' W 093°21'  
2017-Oct-13 18:15N 29°48' W 093°21'1 0.2
2017-Oct-13 12:48N 29°49' W 093°20'0 0.0
2017-Oct-13 12:28N 29°49' W 093°20'0 0.0
2017-Oct-13 08:26N 29°49' W 093°20'2 1.4
2017-Oct-13 07:16N 29°48' W 093°20'0 0.0
2017-Oct-13 07:00N 29°48' W 093°20'0 0.0
2017-Oct-13 06:29N 29°48' W 093°20'1 0.2
2017-Oct-13 01:38N 29°49' W 093°21'1 7.2
2017-Oct-13 01:30N 29°49' W 093°20'1 0.7
2017-Oct-13 00:10N 29°49' W 093°21'7 0.4
2017-Oct-12 06:22N 29°42' W 093°20'610.4
2017-Oct-12 05:46N 29°48' W 093°21'1 0.0
2017-Oct-10 22:42N 29°49' W 093°21'1 0.1
2017-Oct-10 15:28N 29°49' W 093°20'0 0.0
2017-Oct-09 03:55N 29°49' W 093°20'1 0.9
2017-Oct-09 02:53N 29°48' W 093°21'0 0.0
2017-Oct-09 02:30N 29°48' W 093°21'0 0.0
2017-Oct-09 02:00N 29°48' W 093°21'0 0.0
2017-Oct-09 01:30N 29°48' W 093°21'0 0.0
2017-Oct-09 01:00N 29°48' W 093°21'0 0.0
2017-Oct-09 00:30N 29°48' W 093°21'0 0.0
2017-Oct-08 23:47N 29°48' W 093°21'0 0.0
2017-Oct-08 23:30N 29°48' W 093°21'0 0.0
2017-Oct-08 22:41N 29°48' W 093°21'0 0.0
2017-Oct-08 22:22N 29°48' W 093°21'0 0.0
2017-Oct-08 09:08N 29°48' W 093°21'1 0.2
2017-Oct-08 02:37N 29°48' W 093°20'0 0.0
2017-Oct-08 02:28N 29°48' W 093°20'0 0.0
2017-Oct-06 23:58N 29°48' W 093°20'5 0.3
2017-Oct-06 08:16N 29°43' W 093°19'313.1
2017-Oct-06 08:00N 29°46' W 093°21'3 6.5
2017-Oct-06 07:28N 29°49' W 093°20'1 0.6
2017-Oct-06 05:58N 29°49' W 093°21'1 2.9
2017-Oct-06 05:30N 29°48' W 093°20'0 0.0
2017-Oct-06 04:12N 29°48' W 093°20'0 0.0
2017-Oct-06 03:36N 29°48' W 093°20'0 0.0
2017-Oct-06 03:30N 29°48' W 093°20'0 0.0
2017-Oct-06 03:00N 29°48' W 093°20'0 0.0
2017-Oct-06 02:18N 29°48' W 093°20'0 0.0
2017-Oct-06 01:42N 29°48' W 093°20'0 0.0
2017-Oct-06 01:30N 29°48' W 093°20'0 0.0
2017-Oct-06 01:00N 29°48' W 093°20'0 0.0
2017-Oct-06 00:28N 29°48' W 093°20'  

Dump ship's entire track history